Time;durP1;ratioP1;P1;durP2;ratioP2;P2;SDS_P1;SDS_P2;PMS_P1;PMS_P2;Temp;Humidity;BMP_temperature;BMP_pressure;BME280_temperature;BME280_humidity;BME280_pressure;Samples;Min_cycle;Max_cycle;Signal;HPM_P1;HPM_P2
2021/07/29 00:00:04;;;;;;;;;;;16.10;99.90;;;;;;5048414;28;19975;-75
2021/07/29 00:02:36;;;;;;;;;;;16.20;99.90;;;;;;5031678;28;19932;-75
2021/07/29 00:05:03;;;;;;;;;;;16.20;99.90;;;;;;5032504;28;19925;-75
2021/07/29 00:07:30;;;;;;;;;;;16.30;99.90;;;;;;5049305;28;20024;-74
2021/07/29 00:09:57;;;;;;;;;;;16.20;99.90;;;;;;5048959;28;20344;-75
2021/07/29 00:12:23;;;;;;;;;;;16.20;99.90;;;;;;5032283;28;20391;-74
2021/07/29 00:14:51;;;;;;;;;;;16.30;99.90;;;;;;5032238;28;19968;-74
2021/07/29 00:19:01;;;;;;;;;;;16.30;99.90;;;;;;5032516;28;20032;-75
2021/07/29 00:20:21;;;;;;;;;;;16.30;99.90;;;;;;5032053;28;19929;-75
2021/07/29 00:22:49;;;;;;;;;;;16.20;99.90;;;;;;5032080;28;19925;-75
2021/07/29 00:25:21;;;;;;;;;;;16.30;99.90;;;;;;5048777;28;19961;-75
2021/07/29 00:27:54;;;;;;;;;;;16.30;99.90;;;;;;5032075;28;20016;-75
2021/07/29 00:30:21;;;;;;;;;;;16.30;99.90;;;;;;5032090;28;20024;-75
2021/07/29 00:32:48;;;;;;;;;;;16.30;99.90;;;;;;5032737;28;19979;-75
2021/07/29 00:35:14;;;;;;;;;;;16.30;99.90;;;;;;5031926;28;20367;-75
2021/07/29 00:37:42;;;;;;;;;;;16.20;99.90;;;;;;5048675;28;20035;-75
2021/07/29 00:40:13;;;;;;;;;;;16.20;99.90;;;;;;5031857;28;20446;-75
2021/07/29 00:42:45;;;;;;;;;;;16.20;99.90;;;;;;5031363;28;19932;-75
2021/07/29 00:45:12;;;;;;;;;;;16.20;99.90;;;;;;5031681;28;20391;-75
2021/07/29 00:47:44;;;;;;;;;;;16.20;99.90;;;;;;5047615;28;20296;-75
2021/07/29 00:50:12;;;;;;;;;;;16.20;99.90;;;;;;5048173;28;19925;-75
2021/07/29 00:52:39;;;;;;;;;;;16.30;99.90;;;;;;5047833;28;20028;-75
2021/07/29 00:55:07;;;;;;;;;;;16.30;99.90;;;;;;5031918;28;19968;-75
2021/07/29 00:57:39;;;;;;;;;;;16.40;99.90;;;;;;5031470;28;20042;-75
2021/07/29 01:00:06;;;;;;;;;;;16.30;99.90;;;;;;5047648;28;20027;-75
2021/07/29 01:02:38;;;;;;;;;;;16.40;99.90;;;;;;5030710;28;20319;-75
2021/07/29 01:05:10;;;;;;;;;;;16.40;99.90;;;;;;5046765;28;19971;-75
2021/07/29 01:07:42;;;;;;;;;;;16.40;99.90;;;;;;5030988;28;20020;-75
2021/07/29 01:10:14;;;;;;;;;;;16.40;99.90;;;;;;5030686;28;20379;-75
2021/07/29 01:12:46;;;;;;;;;;;16.40;99.90;;;;;;5030345;28;20029;-74
2021/07/29 01:15:17;;;;;;;;;;;16.40;99.90;;;;;;5030885;28;20295;-75
2021/07/29 01:17:49;;;;;;;;;;;16.40;99.90;;;;;;5030669;28;20011;-75
2021/07/29 01:20:17;;;;;;;;;;;16.40;99.90;;;;;;5063798;28;20399;-75
2021/07/29 01:22:49;;;;;;;;;;;16.40;99.90;;;;;;5030329;28;19972;-75
2021/07/29 01:25:20;;;;;;;;;;;16.40;99.90;;;;;;5031899;28;19936;-75
2021/07/29 01:27:52;;;;;;;;;;;16.40;99.90;;;;;;5030817;28;20019;-75
2021/07/29 01:30:19;;;;;;;;;;;16.50;99.90;;;;;;5030580;28;19925;-75
2021/07/29 01:32:50;;;;;;;;;;;16.50;99.90;;;;;;5030490;28;19924;-75
2021/07/29 01:35:22;;;;;;;;;;;16.50;99.90;;;;;;5031714;28;20016;-75
2021/07/29 01:37:49;;;;;;;;;;;16.50;99.90;;;;;;5047666;28;19961;-75
2021/07/29 01:40:20;;;;;;;;;;;16.60;99.90;;;;;;5030744;28;19945;-75
2021/07/29 01:42:52;;;;;;;;;;;16.60;99.90;;;;;;5031319;28;20483;-75
2021/07/29 01:45:19;;;;;;;;;;;16.60;99.90;;;;;;5030217;28;20356;-75
2021/07/29 01:47:50;;;;;;;;;;;16.50;99.90;;;;;;5030340;28;20418;-75
2021/07/29 01:50:17;;;;;;;;;;;16.50;99.90;;;;;;5046936;28;19925;-75
2021/07/29 01:52:49;;;;;;;;;;;16.60;99.90;;;;;;5046009;28;19925;-75
2021/07/29 01:55:15;;;;;;;;;;;16.50;99.90;;;;;;5047584;28;20011;-75
2021/07/29 01:57:48;;;;;;;;;;;16.50;99.90;;;;;;5030712;28;19964;-75
2021/07/29 02:00:15;;;;;;;;;;;16.50;99.90;;;;;;5047506;28;19960;-75
2021/07/29 02:02:47;;;;;;;;;;;16.50;99.90;;;;;;5047243;28;20019;-75
2021/07/29 02:05:19;;;;;;;;;;;16.50;99.90;;;;;;5047269;28;20029;-75
2021/07/29 02:07:45;;;;;;;;;;;16.50;99.90;;;;;;5032003;28;19931;-75
2021/07/29 02:10:12;;;;;;;;;;;16.50;99.90;;;;;;5064091;28;19929;-75
2021/07/29 02:12:39;;;;;;;;;;;16.40;99.90;;;;;;5046824;28;19969;-75
2021/07/29 02:15:11;;;;;;;;;;;16.40;99.90;;;;;;5047208;28;19976;-75
2021/07/29 02:17:38;;;;;;;;;;;16.40;99.90;;;;;;5067643;28;19971;-75
2021/07/29 02:20:10;;;;;;;;;;;16.40;99.90;;;;;;5034743;28;19925;-75
2021/07/29 02:22:42;;;;;;;;;;;16.50;99.90;;;;;;5034390;28;19925;-75
2021/07/29 02:25:08;;;;;;;;;;;16.40;99.90;;;;;;5035563;28;20015;-75
2021/07/29 02:27:35;;;;;;;;;;;16.40;99.90;;;;;;5035810;28;20498;-75
2021/07/29 02:30:07;;;;;;;;;;;16.50;99.90;;;;;;5051018;28;20027;-75
2021/07/29 02:32:34;;;;;;;;;;;16.40;99.90;;;;;;5033934;28;20023;-75
2021/07/29 02:35:00;;;;;;;;;;;16.40;99.90;;;;;;5035411;28;19925;-75
2021/07/29 02:37:27;;;;;;;;;;;16.40;99.90;;;;;;5035468;28;20027;-75
2021/07/29 02:39:53;;;;;;;;;;;16.40;99.90;;;;;;5034269;28;20031;-75
2021/07/29 02:42:20;;;;;;;;;;;16.40;99.90;;;;;;5033832;28;19957;-75
2021/07/29 02:44:52;;;;;;;;;;;16.40;99.90;;;;;;5034083;28;20028;-75
2021/07/29 02:47:18;;;;;;;;;;;16.40;99.90;;;;;;5033984;28;19925;-75
2021/07/29 02:49:45;;;;;;;;;;;16.40;99.90;;;;;;5033938;28;20470;-75
2021/07/29 02:52:17;;;;;;;;;;;16.30;99.90;;;;;;5034978;28;19925;-75
2021/07/29 02:54:44;;;;;;;;;;;16.30;99.90;;;;;;5050444;28;19961;-75
2021/07/29 02:57:17;;;;;;;;;;;16.30;99.90;;;;;;5033933;28;19932;-75
2021/07/29 02:59:43;;;;;;;;;;;16.30;99.90;;;;;;5050291;28;19957;-75
2021/07/29 03:02:15;;;;;;;;;;;16.20;99.90;;;;;;5049567;28;20658;-75
2021/07/29 03:04:42;;;;;;;;;;;16.30;99.90;;;;;;5049990;28;20356;-75
2021/07/29 03:07:08;;;;;;;;;;;16.20;99.90;;;;;;5033836;28;19995;-75
2021/07/29 03:09:35;;;;;;;;;;;16.20;99.90;;;;;;5050343;28;20505;-74
2021/07/29 03:12:07;;;;;;;;;;;16.20;99.90;;;;;;5034631;28;19972;-75
2021/07/29 03:14:38;;;;;;;;;;;16.20;99.90;;;;;;5049992;28;19964;-75
2021/07/29 03:17:05;;;;;;;;;;;16.20;99.90;;;;;;5033281;28;20019;-75
2021/07/29 03:19:32;;;;;;;;;;;16.30;99.90;;;;;;5033458;28;20031;-75
2021/07/29 03:21:58;;;;;;;;;;;16.30;99.90;;;;;;5049562;28;19939;-75
2021/07/29 03:24:30;;;;;;;;;;;16.30;99.90;;;;;;5033643;28;20299;-75
2021/07/29 03:27:02;;;;;;;;;;;16.30;99.90;;;;;;5032952;28;20450;-75
2021/07/29 03:29:29;;;;;;;;;;;16.20;99.90;;;;;;5032666;28;20375;-75
2021/07/29 03:31:56;;;;;;;;;;;16.20;99.90;;;;;;5032911;28;19975;-75
2021/07/29 03:34:22;;;;;;;;;;;16.20;99.90;;;;;;5049900;28;19983;-75
2021/07/29 03:36:54;;;;;;;;;;;16.20;99.90;;;;;;5033034;28;20028;-75
2021/07/29 03:39:21;;;;;;;;;;;16.20;99.90;;;;;;5049852;28;20439;-75
2021/07/29 03:41:47;;;;;;;;;;;16.10;99.90;;;;;;5032910;28;19968;-75
2021/07/29 03:44:14;;;;;;;;;;;16.10;99.90;;;;;;5049469;28;19972;-75
2021/07/29 03:46:40;;;;;;;;;;;16.10;99.90;;;;;;5032965;28;20039;-75
2021/07/29 03:49:07;;;;;;;;;;;16.20;99.90;;;;;;5032738;28;19956;-75
2021/07/29 03:51:39;;;;;;;;;;;16.20;99.90;;;;;;5032011;28;20020;-75
2021/07/29 03:54:05;;;;;;;;;;;16.20;99.90;;;;;;5032346;28;20356;-75
2021/07/29 03:56:37;;;;;;;;;;;16.20;99.90;;;;;;5031920;28;19932;-75
2021/07/29 03:59:04;;;;;;;;;;;16.20;99.90;;;;;;5032069;28;20022;-75
2021/07/29 04:01:35;;;;;;;;;;;16.10;99.90;;;;;;5031913;28;20362;-73
2021/07/29 04:04:02;;;;;;;;;;;16.00;99.90;;;;;;5048636;28;20379;-73
2021/07/29 04:06:34;;;;;;;;;;;16.00;99.90;;;;;;5048784;28;20326;-74
2021/07/29 04:09:06;;;;;;;;;;;16.00;99.90;;;;;;5033521;28;20294;-74
2021/07/29 04:11:32;;;;;;;;;;;16.10;99.90;;;;;;5054311;28;20405;-74
2021/07/29 04:14:00;;;;;;;;;;;16.10;99.90;;;;;;5031782;28;20308;-75
2021/07/29 04:16:26;;;;;;;;;;;16.10;99.90;;;;;;5031300;28;20383;-74
2021/07/29 04:18:58;;;;;;;;;;;16.10;99.90;;;;;;5019623;28;19925;-74
2021/07/29 04:21:30;;;;;;;;;;;16.10;99.90;;;;;;5046614;28;19925;-74
2021/07/29 04:23:57;;;;;;;;;;;16.10;99.90;;;;;;5031034;28;19933;-74
2021/07/29 04:26:23;;;;;;;;;;;16.10;99.90;;;;;;5031028;28;19928;-74
2021/07/29 04:28:55;;;;;;;;;;;16.20;99.90;;;;;;5030980;28;19925;-75
2021/07/29 04:31:22;;;;;;;;;;;16.30;99.90;;;;;;5030621;28;20178;-74
2021/07/29 04:33:49;;;;;;;;;;;16.40;99.90;;;;;;5030878;28;20087;-75
2021/07/29 04:36:21;;;;;;;;;;;16.40;99.90;;;;;;5031658;28;20379;-74
2021/07/29 04:38:52;;;;;;;;;;;16.50;99.90;;;;;;5031242;28;20035;-75
2021/07/29 04:41:24;;;;;;;;;;;16.50;99.90;;;;;;5046946;28;19956;-75
2021/07/29 04:43:52;;;;;;;;;;;16.50;99.90;;;;;;5047943;28;20015;-75
2021/07/29 04:46:23;;;;;;;;;;;16.60;99.90;;;;;;5046839;28;20458;-75
2021/07/29 04:48:56;;;;;;;;;;;16.60;99.90;;;;;;5030378;28;20395;-75
2021/07/29 04:51:22;;;;;;;;;;;16.60;99.90;;;;;;5027499;28;19971;-75
2021/07/29 04:53:54;;;;;;;;;;;16.60;99.90;;;;;;5010601;28;20671;-75
2021/07/29 04:56:26;;;;;;;;;;;16.70;99.90;;;;;;5020990;28;19927;-75
2021/07/29 04:58:53;;;;;;;;;;;16.70;99.90;;;;;;5047270;28;19925;-74
2021/07/29 05:01:25;;;;;;;;;;;16.70;99.90;;;;;;5030352;28;20036;-74
2021/07/29 05:03:51;;;;;;;;;;;16.70;99.90;;;;;;5047398;28;20358;-75
2021/07/29 05:06:18;;;;;;;;;;;16.80;99.90;;;;;;5031381;28;19932;-75
2021/07/29 05:08:45;;;;;;;;;;;16.80;99.90;;;;;;5047735;28;19964;-74
2021/07/29 05:11:16;;;;;;;;;;;16.90;99.90;;;;;;5046431;28;19925;-75
2021/07/29 05:13:43;;;;;;;;;;;16.90;99.90;;;;;;5046870;28;19964;-74
2021/07/29 05:16:10;;;;;;;;;;;17.00;99.90;;;;;;5031899;28;20395;-74
2021/07/29 05:18:37;;;;;;;;;;;17.00;99.90;;;;;;5047534;28;19925;-75
2021/07/29 05:21:08;;;;;;;;;;;17.00;99.90;;;;;;5046085;28;19925;-74
2021/07/29 05:23:40;;;;;;;;;;;17.10;99.90;;;;;;5046631;28;19971;-74
2021/07/29 05:26:13;;;;;;;;;;;17.10;99.90;;;;;;5046752;28;20355;-75
2021/07/29 05:28:45;;;;;;;;;;;17.20;99.90;;;;;;5046228;28;20020;-74
2021/07/29 05:31:12;;;;;;;;;;;17.20;99.90;;;;;;5046729;28;19957;-74
2021/07/29 05:33:43;;;;;;;;;;;17.20;99.90;;;;;;5039700;28;20016;-74
2021/07/29 05:36:15;;;;;;;;;;;17.20;99.90;;;;;;5010773;28;20025;-74
2021/07/29 05:38:47;;;;;;;;;;;17.30;99.90;;;;;;5039077;28;20023;-74
2021/07/29 05:41:18;;;;;;;;;;;17.20;99.90;;;;;;5030419;28;19925;-74
2021/07/29 05:43:45;;;;;;;;;;;17.30;99.90;;;;;;5030716;28;20016;-74
2021/07/29 05:46:13;;;;;;;;;;;17.30;99.90;;;;;;5031981;28;19983;-74
2021/07/29 05:48:44;;;;;;;;;;;17.30;99.90;;;;;;5030727;28;19925;-74
2021/07/29 05:51:16;;;;;;;;;;;17.40;99.90;;;;;;5029639;28;20363;-74
2021/07/29 05:53:48;;;;;;;;;;;17.50;99.90;;;;;;5043735;28;19928;-74
2021/07/29 05:56:15;;;;;;;;;;;17.50;99.90;;;;;;5031466;28;19933;-74
2021/07/29 05:58:46;;;;;;;;;;;17.60;99.90;;;;;;5030260;28;19969;-75
2021/07/29 06:01:13;;;;;;;;;;;17.60;99.90;;;;;;5046730;28;20038;-74
2021/07/29 06:03:40;;;;;;;;;;;17.70;99.90;;;;;;5047040;28;19956;-74
2021/07/29 06:06:11;;;;;;;;;;;17.80;99.90;;;;;;5046278;28;19925;-74
2021/07/29 06:08:44;;;;;;;;;;;17.90;99.90;;;;;;5029652;28;19968;-74
2021/07/29 06:11:15;;;;;;;;;;;18.00;99.90;;;;;;5010681;28;19929;-74
2021/07/29 06:13:42;;;;;;;;;;;18.10;99.90;;;;;;5010505;28;20023;-74
2021/07/29 06:16:14;;;;;;;;;;;18.20;99.90;;;;;;5029008;28;20618;-75
2021/07/29 06:19:03;;;;;;;;;;;18.20;99.90;;;;;;5046428;28;20020;-74
2021/07/29 06:21:33;;;;;;;;;;;18.20;99.90;;;;;;5046224;28;19968;-74
2021/07/29 06:24:00;;;;;;;;;;;18.30;99.90;;;;;;5046712;28;20025;-74
2021/07/29 06:26:27;;;;;;;;;;;18.30;99.90;;;;;;5046429;28;19925;-74
2021/07/29 06:28:53;;;;;;;;;;;18.30;99.90;;;;;;5046794;28;19925;-74
2021/07/29 06:31:20;;;;;;;;;;;18.40;99.90;;;;;;5046107;28;19925;-74
2021/07/29 06:33:52;;;;;;;;;;;18.50;99.90;;;;;;5046595;28;19975;-74
2021/07/29 06:36:24;;;;;;;;;;;18.60;99.90;;;;;;5045684;28;20019;-74
2021/07/29 06:38:57;;;;;;;;;;;18.70;99.90;;;;;;5045783;28;19925;-74
2021/07/29 06:41:29;;;;;;;;;;;18.70;99.90;;;;;;5045538;28;19947;-74
2021/07/29 06:43:57;;;;;;;;;;;18.70;99.90;;;;;;5046559;28;19967;-74
2021/07/29 06:46:23;;;;;;;;;;;18.70;99.90;;;;;;5046301;28;20592;-74
2021/07/29 06:48:55;;;;;;;;;;;18.70;99.90;;;;;;5046391;28;19932;-74
2021/07/29 06:51:21;;;;;;;;;;;18.70;99.90;;;;;;5046052;28;19961;-74
2021/07/29 06:53:49;;;;;;;;;;;18.80;99.90;;;;;;5046301;28;20041;-74
2021/07/29 06:56:16;;;;;;;;;;;18.80;99.90;;;;;;5046311;28;20047;-74
2021/07/29 06:58:43;;;;;;;;;;;18.90;99.90;;;;;;5046259;28;20017;-74
2021/07/29 07:01:15;;;;;;;;;;;18.90;99.90;;;;;;5043686;28;20016;-75
2021/07/29 07:03:43;;;;;;;;;;;19.00;99.90;;;;;;5024504;28;19951;-73
2021/07/29 07:06:14;;;;;;;;;;;19.00;99.90;;;;;;5048443;28;20334;-74
2021/07/29 07:08:41;;;;;;;;;;;19.00;99.90;;;;;;5047063;28;20281;-72
2021/07/29 07:11:17;;;;;;;;;;;19.10;99.90;;;;;;5029643;28;19926;-74
2021/07/29 07:13:49;;;;;;;;;;;19.20;99.90;;;;;;5044234;28;19925;-74
2021/07/29 07:16:16;;;;;;;;;;;19.30;99.90;;;;;;5049171;28;20016;-74
2021/07/29 07:18:42;;;;;;;;;;;19.40;99.90;;;;;;5036636;28;20024;-74
2021/07/29 07:21:10;;;;;;;;;;;19.50;99.90;;;;;;5045875;28;19925;-74
2021/07/29 07:23:38;;;;;;;;;;;19.60;99.90;;;;;;5047078;28;19975;-74
2021/07/29 07:26:05;;;;;;;;;;;19.70;99.90;;;;;;5046562;28;19961;-74
2021/07/29 07:28:32;;;;;;;;;;;19.80;99.90;;;;;;5046679;28;19968;-74
2021/07/29 07:30:59;;;;;;;;;;;19.90;99.90;;;;;;5042948;28;19995;-76
2021/07/29 07:33:25;;;;;;;;;;;20.00;99.90;;;;;;5044304;28;19956;-74
2021/07/29 07:35:57;;;;;;;;;;;20.10;99.90;;;;;;5038204;28;19939;-74
2021/07/29 07:38:24;;;;;;;;;;;20.20;99.90;;;;;;5050284;28;20011;-74
2021/07/29 07:40:51;;;;;;;;;;;20.10;99.90;;;;;;5039227;28;19925;-74
2021/07/29 07:43:23;;;;;;;;;;;20.20;99.90;;;;;;5043481;28;19925;-74
2021/07/29 07:45:50;;;;;;;;;;;20.20;99.90;;;;;;5026050;28;19925;-74
2021/07/29 07:48:17;;;;;;;;;;;20.30;99.90;;;;;;5039723;28;19956;-74
2021/07/29 07:50:49;;;;;;;;;;;20.40;99.90;;;;;;5021966;28;19947;-74
2021/07/29 07:53:26;;;;;;;;;;;20.50;99.90;;;;;;5028765;28;20284;-74
2021/07/29 07:55:55;;;;;;;;;;;20.60;99.90;;;;;;5028196;28;20342;-74
2021/07/29 07:58:26;;;;;;;;;;;20.60;99.90;;;;;;5039312;28;19992;-74
2021/07/29 08:00:53;;;;;;;;;;;20.70;99.90;;;;;;5026174;28;19925;-74
2021/07/29 08:03:20;;;;;;;;;;;20.80;99.90;;;;;;5042050;28;19933;-74
2021/07/29 08:05:47;;;;;;;;;;;20.80;99.90;;;;;;5033417;28;19925;-74
2021/07/29 08:08:19;;;;;;;;;;;20.80;99.90;;;;;;5044197;28;19944;-74
2021/07/29 08:10:48;;;;;;;;;;;20.90;99.90;;;;;;5041351;28;19972;-74
2021/07/29 08:13:15;;;;;;;;;;;20.90;99.90;;;;;;5041633;28;20023;-74
2021/07/29 08:15:42;;;;;;;;;;;21.00;99.90;;;;;;5047353;28;19951;-74
2021/07/29 08:18:11;;;;;;;;;;;21.00;99.90;;;;;;5047543;28;19933;-74
2021/07/29 08:20:44;;;;;;;;;;;21.10;99.90;;;;;;5030074;28;20545;-74
2021/07/29 08:23:16;;;;;;;;;;;21.20;99.90;;;;;;5052175;28;19933;-74
2021/07/29 08:25:43;;;;;;;;;;;21.30;99.90;;;;;;5021681;28;19936;-74
2021/07/29 08:28:11;;;;;;;;;;;21.20;99.90;;;;;;5027345;28;19939;-74
2021/07/29 08:30:39;;;;;;;;;;;21.30;99.90;;;;;;5042047;28;20522;-74
2021/07/29 08:33:11;;;;;;;;;;;21.40;99.90;;;;;;5029470;28;19964;-74
2021/07/29 08:35:38;;;;;;;;;;;21.40;99.90;;;;;;5027708;28;20120;-74
2021/07/29 08:38:05;;;;;;;;;;;21.40;99.90;;;;;;5043146;28;19933;-74
2021/07/29 08:40:34;;;;;;;;;;;21.50;99.90;;;;;;5060667;28;20387;-74
2021/07/29 08:43:02;;;;;;;;;;;21.60;99.90;;;;;;5051434;28;19955;-74
2021/07/29 08:45:30;;;;;;;;;;;21.70;99.90;;;;;;5033517;28;19925;-74
2021/07/29 08:48:03;;;;;;;;;;;21.80;99.90;;;;;;5022927;28;19979;-74
2021/07/29 08:50:35;;;;;;;;;;;21.90;99.90;;;;;;5040190;28;19926;-73
2021/07/29 08:53:02;;;;;;;;;;;21.80;99.90;;;;;;5045851;28;19979;-74
2021/07/29 08:55:30;;;;;;;;;;;21.70;99.90;;;;;;5038240;28;19924;-74
2021/07/29 08:58:02;;;;;;;;;;;21.50;99.90;;;;;;5040412;28;19956;-74
2021/07/29 09:00:29;;;;;;;;;;;21.50;99.90;;;;;;5034101;28;19964;-74
2021/07/29 09:03:15;;;;;;;;;;;21.60;99.90;;;;;;5027319;28;20012;-74
2021/07/29 09:05:57;;;;;;;;;;;21.70;99.90;;;;;;5036959;28;19926;-74
2021/07/29 09:08:41;;;;;;;;;;;21.80;99.90;;;;;;5056975;28;19931;-74
2021/07/29 09:11:27;;;;;;;;;;;22.00;99.90;;;;;;5045493;28;20359;-74
2021/07/29 09:14:01;;;;;;;;;;;22.00;99.90;;;;;;5024226;28;20005;-74
2021/07/29 09:16:37;;;;;;;;;;;21.90;99.90;;;;;;5024999;28;19932;-74
2021/07/29 09:19:04;;;;;;;;;;;21.90;99.90;;;;;;5063658;28;20044;-74
2021/07/29 09:21:36;;;;;;;;;;;21.80;99.90;;;;;;5048762;28;19936;-74
2021/07/29 09:24:07;;;;;;;;;;;21.80;99.90;;;;;;5047876;28;19932;-74
2021/07/29 09:26:55;;;;;;;;;;;21.80;99.90;;;;;;5034039;28;19925;-75
2021/07/29 09:29:28;;;;;;;;;;;21.80;99.90;;;;;;5037716;28;19928;-75
2021/07/29 09:32:03;;;;;;;;;;;21.80;99.90;;;;;;5066951;28;20020;-75
2021/07/29 09:34:53;;;;;;;;;;;21.80;99.90;;;;;;5057171;28;20016;-75
2021/07/29 09:37:26;;;;;;;;;;;21.70;99.90;;;;;;5013607;28;19929;-75
2021/07/29 09:40:00;;;;;;;;;;;21.70;99.90;;;;;;5028600;28;19928;-75
2021/07/29 09:42:27;;;;;;;;;;;21.80;99.90;;;;;;5058231;28;19983;-75
2021/07/29 09:44:54;;;;;;;;;;;21.80;99.90;;;;;;5030839;28;19971;-75
2021/07/29 09:47:22;;;;;;;;;;;21.80;99.90;;;;;;5047888;28;21099;-75
2021/07/29 09:49:50;;;;;;;;;;;21.80;99.90;;;;;;5025893;28;19925;-75
2021/07/29 09:52:17;;;;;;;;;;;21.80;99.90;;;;;;5043093;28;19929;-75
2021/07/29 09:54:47;;;;;;;;;;;21.80;99.90;;;;;;5051696;28;19947;-75
2021/07/29 09:57:14;;;;;;;;;;;21.90;99.90;;;;;;5046694;28;19925;-75
2021/07/29 09:59:41;;;;;;;;;;;22.00;99.90;;;;;;5030574;28;19925;-75
2021/07/29 10:02:08;;;;;;;;;;;22.10;99.90;;;;;;5039947;28;20412;-75
2021/07/29 10:04:44;;;;;;;;;;;22.10;99.90;;;;;;5045793;28;19992;-74
2021/07/29 10:07:30;;;;;;;;;;;22.20;99.90;;;;;;5065180;28;20448;-74
2021/07/29 10:10:03;;;;;;;;;;;22.40;99.90;;;;;;5050301;28;19933;-74
2021/07/29 10:12:36;;;;;;;;;;;22.50;99.90;;;;;;5024908;28;19925;-74
2021/07/29 10:15:03;;;;;;;;;;;22.70;99.90;;;;;;5035770;28;19929;-74
2021/07/29 10:17:35;;;;;;;;;;;22.80;99.90;;;;;;5039547;28;19971;-74
2021/07/29 10:20:23;;;;;;;;;;;22.80;99.90;;;;;;5021004;28;19928;-74
2021/07/29 10:23:10;;;;;;;;;;;22.70;99.90;;;;;;5036001;28;19929;-73
2021/07/29 10:25:52;;;;;;;;;;;22.90;99.90;;;;;;5023958;28;19983;-74
2021/07/29 10:28:26;;;;;;;;;;;23.00;99.90;;;;;;5002156;28;20376;-74
2021/07/29 10:31:00;;;;;;;;;;;22.90;99.90;;;;;;5023460;28;19926;-74
2021/07/29 10:33:32;;;;;;;;;;;22.80;99.90;;;;;;5029959;28;19948;-74
2021/07/29 10:35:59;;;;;;;;;;;23.00;99.90;;;;;;5021036;28;19933;-73
2021/07/29 10:38:38;;;;;;;;;;;23.00;99.90;;;;;;5019299;28;20367;-74
2021/07/29 10:41:25;;;;;;;;;;;23.00;99.90;;;;;;5038425;28;20384;-74
2021/07/29 10:43:52;;;;;;;;;;;23.10;99.90;;;;;;5023479;28;19960;-74
2021/07/29 10:46:43;;;;;;;;;;;23.10;99.90;;;;;;5030836;28;19925;-73
2021/07/29 10:49:13;;;;;;;;;;;23.00;99.90;;;;;;5022158;28;20355;-74
2021/07/29 10:52:03;;;;;;;;;;;23.20;99.90;;;;;;5048871;28;20019;-74
2021/07/29 10:54:37;;;;;;;;;;;23.40;99.90;;;;;;5034410;28;20024;-74
2021/07/29 10:57:09;;;;;;;;;;;23.60;99.90;;;;;;5034218;28;20004;-74
2021/07/29 10:59:41;;;;;;;;;;;23.70;99.90;;;;;;5033058;28;20047;-74
2021/07/29 11:02:14;;;;;;;;;;;23.90;99.90;;;;;;5032715;28;19971;-74
2021/07/29 11:04:56;;;;;;;;;;;23.70;99.90;;;;;;5034304;28;20314;-74
2021/07/29 11:07:28;;;;;;;;;;;23.60;99.90;;;;;;5031783;28;19935;-74
2021/07/29 11:10:04;;;;;;;;;;;23.70;99.90;;;;;;5045004;28;20019;-75
2021/07/29 11:12:37;;;;;;;;;;;23.60;99.90;;;;;;5037243;28;19972;-74
2021/07/29 11:15:06;;;;;;;;;;;23.80;99.90;;;;;;5011752;28;19984;-73
2021/07/29 11:17:33;;;;;;;;;;;23.80;99.90;;;;;;5025901;28;19975;-74
2021/07/29 11:20:27;;;;;;;;;;;24.00;99.90;;;;;;5033153;28;20020;-74
2021/07/29 11:22:58;;;;;;;;;;;24.20;99.90;;;;;;5030766;28;20019;-74
2021/07/29 11:25:31;;;;;;;;;;;24.30;99.90;;;;;;5033594;28;19935;-74
2021/07/29 11:28:13;;;;;;;;;;;24.10;99.90;;;;;;5028209;28;20443;-74
2021/07/29 11:30:45;;;;;;;;;;;24.10;99.90;;;;;;5045218;28;19937;-73
2021/07/29 11:33:24;;;;;;;;;;;24.10;99.90;;;;;;5049233;28;20454;-74
2021/07/29 11:35:51;;;;;;;;;;;24.20;99.90;;;;;;5037455;28;19964;-74
2021/07/29 11:38:24;;;;;;;;;;;24.20;99.90;;;;;;5012812;28;20388;-74
2021/07/29 11:41:00;;;;;;;;;;;24.50;99.90;;;;;;5029007;28;20423;-74
2021/07/29 11:43:32;;;;;;;;;;;24.60;99.90;;;;;;5028754;28;20021;-74
2021/07/29 11:46:03;;;;;;;;;;;24.40;99.90;;;;;;5028944;28;19933;-74
2021/07/29 11:48:35;;;;;;;;;;;24.00;99.90;;;;;;4995994;28;20276;-74
2021/07/29 11:51:13;;;;;;;;;;;23.70;99.90;;;;;;5028187;28;19925;-74
2021/07/29 11:53:45;;;;;;;;;;;23.70;99.90;;;;;;5012294;28;20403;-74
2021/07/29 11:56:17;;;;;;;;;;;23.60;99.90;;;;;;5046149;28;19929;-74
2021/07/29 11:58:57;;;;;;;;;;;23.70;99.90;;;;;;5028747;28;20453;-74
2021/07/29 12:01:29;;;;;;;;;;;24.00;99.90;;;;;;5044157;28;19929;-73
2021/07/29 12:04:01;;;;;;;;;;;24.00;99.90;;;;;;5041278;28;20015;-74
2021/07/29 12:06:33;;;;;;;;;;;24.10;99.90;;;;;;5030410;28;19935;-74
2021/07/29 12:09:06;;;;;;;;;;;24.10;99.90;;;;;;5032792;28;19947;-74
2021/07/29 12:11:38;;;;;;;;;;;24.30;99.90;;;;;;5032405;28;20019;-74
2021/07/29 12:14:13;;;;;;;;;;;24.40;99.90;;;;;;5047029;28;20422;-74
2021/07/29 12:16:50;;;;;;;;;;;24.50;99.90;;;;;;5048141;28;20027;-74
2021/07/29 12:19:18;;;;;;;;;;;24.70;99.90;;;;;;5048513;28;20318;-74
2021/07/29 12:21:45;;;;;;;;;;;24.70;99.90;;;;;;5044821;28;19928;-73
2021/07/29 12:24:12;;;;;;;;;;;24.80;99.90;;;;;;5024644;28;19925;-75
2021/07/29 12:27:03;;;;;;;;;;;24.90;99.90;;;;;;5011393;28;19973;-74
2021/07/29 12:29:40;;;;;;;;;;;25.00;99.90;;;;;;5042033;28;20407;-73
2021/07/29 12:32:18;;;;;;;;;;;25.10;99.90;;;;;;5036070;28;20011;-74
2021/07/29 12:34:45;;;;;;;;;;;25.10;99.90;;;;;;5029651;28;19925;-74
2021/07/29 12:37:30;;;;;;;;;;;25.10;99.90;;;;;;5030320;28;19929;-74
2021/07/29 12:40:03;;;;;;;;;;;25.20;99.90;;;;;;5026539;28;19937;-74
2021/07/29 12:42:35;;;;;;;;;;;25.10;99.90;;;;;;5025083;28;20455;-74
2021/07/29 12:45:08;;;;;;;;;;;25.20;99.90;;;;;;5011929;28;20677;-73
2021/07/29 12:47:35;;;;;;;;;;;25.40;99.90;;;;;;5010729;28;19936;-73
2021/07/29 12:50:02;;;;;;;;;;;25.60;99.90;;;;;;5029943;28;20004;-74
2021/07/29 12:52:29;;;;;;;;;;;25.60;99.90;;;;;;5031192;28;19929;-74
2021/07/29 12:55:09;;;;;;;;;;;25.60;99.90;;;;;;5031762;28;19925;-74
2021/07/29 12:57:49;;;;;;;;;;;25.50;99.90;;;;;;5030586;28;20637;-74
2021/07/29 13:00:17;;;;;;;;;;;25.50;99.90;;;;;;5031737;28;19925;-75
2021/07/29 13:02:44;;;;;;;;;;;25.70;99.90;;;;;;5029761;28;20343;-74
2021/07/29 13:05:11;;;;;;;;;;;25.80;99.90;;;;;;5030341;28;19929;-74
2021/07/29 13:07:43;;;;;;;;;;;25.80;99.90;;;;;;5022582;28;19933;-74
2021/07/29 13:10:09;;;;;;;;;;;25.80;99.90;;;;;;5027046;28;19925;-74
2021/07/29 13:12:41;;;;;;;;;;;25.80;99.50;;;;;;5026822;28;19971;-74
2021/07/29 13:15:08;;;;;;;;;;;25.60;99.90;;;;;;5010479;28;19968;-74
2021/07/29 13:17:35;;;;;;;;;;;25.80;99.90;;;;;;5027025;28;19929;-74
2021/07/29 13:20:02;;;;;;;;;;;25.80;99.90;;;;;;5037674;28;19961;-74
2021/07/29 13:22:28;;;;;;;;;;;25.80;99.90;;;;;;5066466;28;19925;-74
2021/07/29 13:24:58;;;;;;;;;;;25.60;99.90;;;;;;5051273;28;19971;-74
2021/07/29 13:27:29;;;;;;;;;;;25.60;99.50;;;;;;5066778;28;19925;-74
2021/07/29 13:29:56;;;;;;;;;;;25.40;99.90;;;;;;5050003;28;19981;-74
2021/07/29 13:32:22;;;;;;;;;;;25.20;99.90;;;;;;5034021;28;19925;-75
2021/07/29 13:34:54;;;;;;;;;;;25.00;99.60;;;;;;5031275;28;19975;-73
2021/07/29 13:37:21;;;;;;;;;;;25.20;99.90;;;;;;5046773;28;19926;-74
2021/07/29 13:39:47;;;;;;;;;;;25.60;99.90;;;;;;5031137;28;19975;-74
2021/07/29 13:42:14;;;;;;;;;;;25.80;99.90;;;;;;5045740;28;20003;-73
2021/07/29 13:44:43;;;;;;;;;;;25.70;99.00;;;;;;5047427;28;19987;-74
2021/07/29 13:47:10;;;;;;;;;;;25.50;98.80;;;;;;5046361;28;19932;-74
2021/07/29 13:49:41;;;;;;;;;;;25.20;99.50;;;;;;5031129;28;19925;-74
2021/07/29 13:52:13;;;;;;;;;;;25.00;99.30;;;;;;5045095;28;19972;-75
2021/07/29 13:54:45;;;;;;;;;;;25.30;99.90;;;;;;5046206;28;19968;-74
2021/07/29 13:57:16;;;;;;;;;;;25.60;99.00;;;;;;5030917;28;19933;-75
2021/07/29 13:59:43;;;;;;;;;;;25.90;96.80;;;;;;5030975;28;19925;-74
2021/07/29 14:02:15;;;;;;;;;;;26.20;97.30;;;;;;5029270;28;19965;-74
2021/07/29 14:04:42;;;;;;;;;;;26.10;96.00;;;;;;5046271;28;20387;-74
2021/07/29 14:07:13;;;;;;;;;;;25.50;96.30;;;;;;5045209;28;19929;-74
2021/07/29 14:09:40;;;;;;;;;;;25.20;96.40;;;;;;5046511;28;19956;-74
2021/07/29 14:12:12;;;;;;;;;;;25.40;98.60;;;;;;5042764;28;19925;-75
2021/07/29 14:14:44;;;;;;;;;;;25.70;97.00;;;;;;5015365;28;19955;-74
2021/07/29 14:17:22;;;;;;;;;;;26.20;97.90;;;;;;5031358;28;20012;-74
2021/07/29 14:25:10;;;;;;;;;;;26.60;95.80;;;;;;5044783;28;19940;-74
2021/07/29 14:27:38;;;;;;;;;;;26.50;94.60;;;;;;5050593;28;19952;-75
2021/07/29 14:30:05;;;;;;;;;;;26.70;93.50;;;;;;5030909;28;19971;-74
2021/07/29 14:32:32;;;;;;;;;;;27.00;91.80;;;;;;5032994;28;20727;-75
2021/07/29 14:35:04;;;;;;;;;;;27.10;90.70;;;;;;5034717;28;19929;-74
2021/07/29 14:37:36;;;;;;;;;;;27.10;90.80;;;;;;5033503;28;19960;-74
2021/07/29 14:40:08;;;;;;;;;;;27.00;90.00;;;;;;5033585;28;20391;-74